sensor_id;sensor_type;location;lat;lon;timestamp;pressure;altitude;pressure_sealevel;temperature;humidity
44663;BME280;30381;52.754;18.258;2023-06-01T00:02:12;100820.11;;;14.25;48.07
44663;BME280;30381;52.754;18.258;2023-06-01T00:12:52;100812.82;;;14.06;48.87
44663;BME280;30381;52.754;18.258;2023-06-01T00:15:39;100813.65;;;13.99;49.36
44663;BME280;30381;52.754;18.258;2023-06-01T00:18:09;100810.92;;;13.93;49.35
44663;BME280;30381;52.754;18.258;2023-06-01T00:20:46;100808.67;;;13.88;49.70
44663;BME280;30381;52.754;18.258;2023-06-01T00:23:29;100808.59;;;13.80;49.76
44663;BME280;30381;52.754;18.258;2023-06-01T00:26:07;100806.05;;;13.75;50.01
44663;BME280;30381;52.754;18.258;2023-06-01T00:28:35;100804.29;;;13.69;49.94
44663;BME280;30381;52.754;18.258;2023-06-01T00:31:05;100805.80;;;13.63;50.25
44663;BME280;30381;52.754;18.258;2023-06-01T00:33:42;100806.09;;;13.60;50.43
44663;BME280;30381;52.754;18.258;2023-06-01T00:36:08;100804.34;;;13.56;50.51
44663;BME280;30381;52.754;18.258;2023-06-01T00:38:36;100803.59;;;13.53;50.75
44663;BME280;30381;52.754;18.258;2023-06-01T00:41:28;100803.12;;;13.50;51.14
44663;BME280;30381;52.754;18.258;2023-06-01T00:43:56;100798.77;;;13.49;51.29
44663;BME280;30381;52.754;18.258;2023-06-01T00:46:26;100799.25;;;13.49;51.26
44663;BME280;30381;52.754;18.258;2023-06-01T00:49:04;100801.39;;;13.47;51.36
44663;BME280;30381;52.754;18.258;2023-06-01T00:51:32;100801.73;;;13.45;51.27
44663;BME280;30381;52.754;18.258;2023-06-01T00:54:19;100796.10;;;13.42;51.36
44663;BME280;30381;52.754;18.258;2023-06-01T00:56:52;100798.59;;;13.37;51.51
44663;BME280;30381;52.754;18.258;2023-06-01T00:59:38;100801.64;;;13.30;51.61
44663;BME280;30381;52.754;18.258;2023-06-01T01:02:05;100797.86;;;13.24;52.02
44663;BME280;30381;52.754;18.258;2023-06-01T01:04:41;100802.10;;;13.18;52.01
44663;BME280;30381;52.754;18.258;2023-06-01T01:07:32;100799.46;;;13.12;52.29
44663;BME280;30381;52.754;18.258;2023-06-01T01:13:37;100794.69;;;12.94;53.23
44663;BME280;30381;52.754;18.258;2023-06-01T01:16:39;100795.45;;;12.84;53.57
44663;BME280;30381;52.754;18.258;2023-06-01T01:20:02;100795.42;;;12.73;53.92
44663;BME280;30381;52.754;18.258;2023-06-01T01:22:49;100794.20;;;12.65;54.08
44663;BME280;30381;52.754;18.258;2023-06-01T01:26:12;100793.48;;;12.58;54.42
44663;BME280;30381;52.754;18.258;2023-06-01T01:29:05;100790.36;;;12.50;54.56
44663;BME280;30381;52.754;18.258;2023-06-01T01:31:34;100787.42;;;12.43;54.75
44663;BME280;30381;52.754;18.258;2023-06-01T01:34:04;100788.80;;;12.39;54.86
44663;BME280;30381;52.754;18.258;2023-06-01T01:36:35;100788.31;;;12.34;55.23
44663;BME280;30381;52.754;18.258;2023-06-01T01:39:19;100787.56;;;12.27;55.54
44663;BME280;30381;52.754;18.258;2023-06-01T01:41:55;100786.87;;;12.20;55.68
44663;BME280;30381;52.754;18.258;2023-06-01T01:44:33;100785.09;;;12.14;56.00
44663;BME280;30381;52.754;18.258;2023-06-01T01:47:30;100787.57;;;12.08;56.21
44663;BME280;30381;52.754;18.258;2023-06-01T01:50:11;100783.65;;;12.02;56.56
44663;BME280;30381;52.754;18.258;2023-06-01T01:52:42;100779.80;;;11.96;56.72
44663;BME280;30381;52.754;18.258;2023-06-01T01:55:47;100781.82;;;11.92;57.19
44663;BME280;30381;52.754;18.258;2023-06-01T01:58:54;100780.87;;;11.87;57.42
44663;BME280;30381;52.754;18.258;2023-06-01T02:01:23;100776.92;;;11.83;57.88
44663;BME280;30381;52.754;18.258;2023-06-01T02:04:02;100776.08;;;11.81;58.08
44663;BME280;30381;52.754;18.258;2023-06-01T02:06:58;100773.88;;;11.79;58.50
44663;BME280;30381;52.754;18.258;2023-06-01T02:09:27;100776.56;;;11.78;58.63
44663;BME280;30381;52.754;18.258;2023-06-01T02:11:56;100772.93;;;11.76;58.92
44663;BME280;30381;52.754;18.258;2023-06-01T02:14:23;100771.84;;;11.75;58.96
44663;BME280;30381;52.754;18.258;2023-06-01T02:17:01;100775.30;;;11.75;59.40
44663;BME280;30381;52.754;18.258;2023-06-01T02:19:29;100773.10;;;11.76;60.24
44663;BME280;30381;52.754;18.258;2023-06-01T02:22:18;100768.94;;;11.76;59.66
44663;BME280;30381;52.754;18.258;2023-06-01T02:25:03;100775.65;;;11.76;59.66
44663;BME280;30381;52.754;18.258;2023-06-01T02:27:31;100776.73;;;11.76;59.86
44663;BME280;30381;52.754;18.258;2023-06-01T02:30:19;100780.23;;;11.78;60.68
44663;BME280;30381;52.754;18.258;2023-06-01T02:32:49;100779.30;;;11.79;60.84
44663;BME280;30381;52.754;18.258;2023-06-01T02:35:28;100772.44;;;11.81;60.78
44663;BME280;30381;52.754;18.258;2023-06-01T02:38:15;100772.17;;;11.82;60.75
44663;BME280;30381;52.754;18.258;2023-06-01T02:40:51;100767.64;;;11.82;60.66
44663;BME280;30381;52.754;18.258;2023-06-01T02:43:28;100764.29;;;11.83;60.63
44663;BME280;30381;52.754;18.258;2023-06-01T02:46:04;100764.09;;;11.81;60.93
44663;BME280;30381;52.754;18.258;2023-06-01T02:48:32;100762.95;;;11.81;61.15
44663;BME280;30381;52.754;18.258;2023-06-01T02:51:20;100762.01;;;11.82;61.36
44663;BME280;30381;52.754;18.258;2023-06-01T02:53:47;100760.70;;;11.84;61.48
44663;BME280;30381;52.754;18.258;2023-06-01T02:58:59;100757.99;;;11.93;61.64
44663;BME280;30381;52.754;18.258;2023-06-01T03:01:43;100755.85;;;11.99;61.90
44663;BME280;30381;52.754;18.258;2023-06-01T03:07:09;100756.29;;;12.16;61.93
44663;BME280;30381;52.754;18.258;2023-06-01T03:09:46;100757.23;;;12.24;61.91
44663;BME280;30381;52.754;18.258;2023-06-01T03:12:46;100757.03;;;12.30;61.91
44663;BME280;30381;52.754;18.258;2023-06-01T03:18:25;100748.78;;;12.65;62.65
44663;BME280;30381;52.754;18.258;2023-06-01T03:21:52;100738.55;;;13.85;62.63
44663;BME280;30381;52.754;18.258;2023-06-01T03:27:19;100736.55;;;16.38;60.96
44663;BME280;30381;52.754;18.258;2023-06-01T03:32:46;100726.71;;;18.16;58.41
44663;BME280;30381;52.754;18.258;2023-06-01T03:35:40;100727.22;;;18.90;57.15
44663;BME280;30381;52.754;18.258;2023-06-01T03:38:07;100725.36;;;19.39;55.68
44663;BME280;30381;52.754;18.258;2023-06-01T03:40:40;100725.23;;;20.02;55.16
44663;BME280;30381;52.754;18.258;2023-06-01T03:43:06;100722.02;;;20.27;53.67
44663;BME280;30381;52.754;18.258;2023-06-01T03:45:33;100721.98;;;20.30;53.13
44663;BME280;30381;52.754;18.258;2023-06-01T03:48:07;100722.16;;;20.90;52.53
44663;BME280;30381;52.754;18.258;2023-06-01T03:50:55;100719.17;;;21.93;51.62
44663;BME280;30381;52.754;18.258;2023-06-01T03:53:31;100709.79;;;22.69;50.03
44663;BME280;30381;52.754;18.258;2023-06-01T03:56:24;100710.39;;;23.40;49.12
44663;BME280;30381;52.754;18.258;2023-06-01T03:59:01;100704.14;;;24.12;47.97
44663;BME280;30381;52.754;18.258;2023-06-01T04:01:28;100707.10;;;24.73;47.28
44663;BME280;30381;52.754;18.258;2023-06-01T04:03:58;100708.23;;;25.34;46.63
44663;BME280;30381;52.754;18.258;2023-06-01T04:06:26;100703.80;;;25.87;45.35
44663;BME280;30381;52.754;18.258;2023-06-01T04:08:56;100697.20;;;26.36;44.02
44663;BME280;30381;52.754;18.258;2023-06-01T04:11:26;100697.19;;;26.77;43.27
44663;BME280;30381;52.754;18.258;2023-06-01T04:13:53;100693.10;;;27.16;42.60
44663;BME280;30381;52.754;18.258;2023-06-01T04:16:20;100687.59;;;27.54;41.97
44663;BME280;30381;52.754;18.258;2023-06-01T04:18:46;100684.71;;;27.97;41.52
44663;BME280;30381;52.754;18.258;2023-06-01T04:21:12;100684.63;;;28.30;40.89
44663;BME280;30381;52.754;18.258;2023-06-01T04:23:39;100689.20;;;28.71;40.34
44663;BME280;30381;52.754;18.258;2023-06-01T04:26:05;100688.70;;;29.01;39.14
44663;BME280;30381;52.754;18.258;2023-06-01T04:28:32;100690.84;;;29.20;38.24
44663;BME280;30381;52.754;18.258;2023-06-01T04:30:59;100687.55;;;29.47;37.06
44663;BME280;30381;52.754;18.258;2023-06-01T04:33:26;100687.88;;;29.77;37.15
44663;BME280;30381;52.754;18.258;2023-06-01T04:35:53;100687.19;;;30.20;36.81
44663;BME280;30381;52.754;18.258;2023-06-01T04:39:03;100683.43;;;30.49;35.98
44663;BME280;30381;52.754;18.258;2023-06-01T04:42:02;100683.55;;;30.63;35.13
44663;BME280;30381;52.754;18.258;2023-06-01T04:45:02;100680.01;;;30.65;34.26
44663;BME280;30381;52.754;18.258;2023-06-01T04:51:38;100674.29;;;31.14;33.54
44663;BME280;30381;52.754;18.258;2023-06-01T04:54:51;100675.17;;;31.47;32.80
44663;BME280;30381;52.754;18.258;2023-06-01T04:57:17;100667.16;;;31.61;32.57
44663;BME280;30381;52.754;18.258;2023-06-01T04:59:45;100666.95;;;31.67;32.26
44663;BME280;30381;52.754;18.258;2023-06-01T05:02:16;100660.65;;;31.67;32.11
44663;BME280;30381;52.754;18.258;2023-06-01T05:05:24;100659.13;;;31.78;31.82
44663;BME280;30381;52.754;18.258;2023-06-01T05:09:03;100653.93;;;32.13;32.00
44663;BME280;30381;52.754;18.258;2023-06-01T05:12:15;100651.32;;;32.47;31.25
44663;BME280;30381;52.754;18.258;2023-06-01T05:15:07;100651.77;;;32.64;30.79
44663;BME280;30381;52.754;18.258;2023-06-01T05:18:12;100653.27;;;32.78;30.65
44663;BME280;30381;52.754;18.258;2023-06-01T05:24:24;100650.33;;;32.80;30.01
44663;BME280;30381;52.754;18.258;2023-06-01T05:29:56;100646.41;;;32.95;29.51
44663;BME280;30381;52.754;18.258;2023-06-01T05:33:11;100642.98;;;33.07;29.35
44663;BME280;30381;52.754;18.258;2023-06-01T05:36:03;100644.95;;;33.20;28.89
44663;BME280;30381;52.754;18.258;2023-06-01T05:38:34;100644.23;;;33.28;29.02
44663;BME280;30381;52.754;18.258;2023-06-01T05:41:09;100640.43;;;33.46;28.71
44663;BME280;30381;52.754;18.258;2023-06-01T05:43:38;100640.09;;;33.56;28.29
44663;BME280;30381;52.754;18.258;2023-06-01T05:48:52;100637.04;;;33.66;28.70
44663;BME280;30381;52.754;18.258;2023-06-01T05:51:33;100634.06;;;33.88;28.57
44663;BME280;30381;52.754;18.258;2023-06-01T05:54:16;100635.80;;;33.98;28.01
44663;BME280;30381;52.754;18.258;2023-06-01T05:56:44;100632.13;;;33.84;27.97
44663;BME280;30381;52.754;18.258;2023-06-01T05:59:11;100626.02;;;33.57;27.70
44663;BME280;30381;52.754;18.258;2023-06-01T06:07:13;100633.49;;;33.27;28.16
44663;BME280;30381;52.754;18.258;2023-06-01T06:10:01;100631.11;;;33.20;28.17
44663;BME280;30381;52.754;18.258;2023-06-01T06:12:30;100628.70;;;33.12;28.38
